sensor_id;sensor_type;location;lat;lon;timestamp;temperature;humidity
14008;DHT22;61651;45.508;12.232;2023-09-19T00:00:59;23.90;99.90
14008;DHT22;61651;45.508;12.232;2023-09-19T00:04:01;23.70;99.90
14008;DHT22;61651;45.508;12.232;2023-09-19T00:07:03;23.60;99.90
14008;DHT22;61651;45.508;12.232;2023-09-19T00:10:06;23.60;99.90
14008;DHT22;61651;45.508;12.232;2023-09-19T00:13:11;23.60;99.90
14008;DHT22;61651;45.508;12.232;2023-09-19T00:16:14;23.60;99.90
14008;DHT22;61651;45.508;12.232;2023-09-19T00:19:16;23.60;99.90
14008;DHT22;61651;45.508;12.232;2023-09-19T00:22:18;23.60;99.90
14008;DHT22;61651;45.508;12.232;2023-09-19T00:25:20;23.80;99.90
14008;DHT22;61651;45.508;12.232;2023-09-19T00:28:24;23.80;99.90
14008;DHT22;61651;45.508;12.232;2023-09-19T00:31:26;23.90;99.90
14008;DHT22;61651;45.508;12.232;2023-09-19T00:34:31;24.10;99.90
14008;DHT22;61651;45.508;12.232;2023-09-19T00:37:35;24.30;99.90
14008;DHT22;61651;45.508;12.232;2023-09-19T00:40:36;24.40;99.90
14008;DHT22;61651;45.508;12.232;2023-09-19T00:43:40;24.60;99.90
14008;DHT22;61651;45.508;12.232;2023-09-19T00:46:42;24.60;99.90
14008;DHT22;61651;45.508;12.232;2023-09-19T00:49:44;24.60;99.90
14008;DHT22;61651;45.508;12.232;2023-09-19T00:52:53;24.60;99.90
14008;DHT22;61651;45.508;12.232;2023-09-19T00:55:56;24.60;99.90
14008;DHT22;61651;45.508;12.232;2023-09-19T00:59:00;24.60;99.90
14008;DHT22;61651;45.508;12.232;2023-09-19T01:02:02;24.10;99.90
14008;DHT22;61651;45.508;12.232;2023-09-19T01:05:05;24.00;99.90
14008;DHT22;61651;45.508;12.232;2023-09-19T01:08:08;24.00;99.90
14008;DHT22;61651;45.508;12.232;2023-09-19T01:11:14;23.90;99.90
14008;DHT22;61651;45.508;12.232;2023-09-19T01:14:31;23.60;99.90
14008;DHT22;61651;45.508;12.232;2023-09-19T01:17:39;23.40;99.90
14008;DHT22;61651;45.508;12.232;2023-09-19T01:20:50;23.30;99.90
14008;DHT22;61651;45.508;12.232;2023-09-19T01:24:34;23.20;99.90
14008;DHT22;61651;45.508;12.232;2023-09-19T01:28:06;23.20;99.90
14008;DHT22;61651;45.508;12.232;2023-09-19T01:31:11;23.20;99.90
14008;DHT22;61651;45.508;12.232;2023-09-19T01:34:14;23.10;99.90
14008;DHT22;61651;45.508;12.232;2023-09-19T01:37:16;23.10;99.90
14008;DHT22;61651;45.508;12.232;2023-09-19T01:40:21;23.20;99.90
14008;DHT22;61651;45.508;12.232;2023-09-19T01:43:29;23.30;99.90
14008;DHT22;61651;45.508;12.232;2023-09-19T01:46:38;23.40;99.90
14008;DHT22;61651;45.508;12.232;2023-09-19T01:49:48;23.50;99.90
14008;DHT22;61651;45.508;12.232;2023-09-19T01:52:57;23.30;99.90
14008;DHT22;61651;45.508;12.232;2023-09-19T01:56:02;23.40;99.90
14008;DHT22;61651;45.508;12.232;2023-09-19T01:59:13;23.30;99.90
14008;DHT22;61651;45.508;12.232;2023-09-19T02:02:20;23.20;99.90
14008;DHT22;61651;45.508;12.232;2023-09-19T02:05:23;23.20;99.90
14008;DHT22;61651;45.508;12.232;2023-09-19T02:08:26;23.10;99.90
14008;DHT22;61651;45.508;12.232;2023-09-19T02:11:28;23.10;99.90
14008;DHT22;61651;45.508;12.232;2023-09-19T02:14:30;23.30;99.90
14008;DHT22;61651;45.508;12.232;2023-09-19T02:17:34;23.20;99.90
14008;DHT22;61651;45.508;12.232;2023-09-19T02:20:36;23.10;99.90
14008;DHT22;61651;45.508;12.232;2023-09-19T02:23:38;23.00;99.90
14008;DHT22;61651;45.508;12.232;2023-09-19T02:26:40;23.30;99.90
14008;DHT22;61651;45.508;12.232;2023-09-19T02:29:42;23.50;99.90
14008;DHT22;61651;45.508;12.232;2023-09-19T02:32:45;23.70;99.90
14008;DHT22;61651;45.508;12.232;2023-09-19T02:35:53;23.90;99.90
14008;DHT22;61651;45.508;12.232;2023-09-19T02:38:58;23.80;99.90
14008;DHT22;61651;45.508;12.232;2023-09-19T02:42:00;23.60;99.90
14008;DHT22;61651;45.508;12.232;2023-09-19T02:45:02;23.50;99.90
14008;DHT22;61651;45.508;12.232;2023-09-19T02:48:06;23.70;99.90
14008;DHT22;61651;45.508;12.232;2023-09-19T02:51:08;23.80;99.90
14008;DHT22;61651;45.508;12.232;2023-09-19T02:54:10;23.90;99.90
14008;DHT22;61651;45.508;12.232;2023-09-19T02:57:12;23.90;99.90
14008;DHT22;61651;45.508;12.232;2023-09-19T03:00:18;23.80;99.90
14008;DHT22;61651;45.508;12.232;2023-09-19T03:03:23;23.80;99.90
14008;DHT22;61651;45.508;12.232;2023-09-19T03:06:25;23.80;99.90
14008;DHT22;61651;45.508;12.232;2023-09-19T03:09:27;23.70;99.90
14008;DHT22;61651;45.508;12.232;2023-09-19T03:12:29;23.60;99.90
14008;DHT22;61651;45.508;12.232;2023-09-19T03:15:32;23.60;99.90
14008;DHT22;61651;45.508;12.232;2023-09-19T03:18:36;23.70;99.90
14008;DHT22;61651;45.508;12.232;2023-09-19T03:21:38;23.80;99.90
14008;DHT22;61651;45.508;12.232;2023-09-19T03:24:40;23.80;99.90
14008;DHT22;61651;45.508;12.232;2023-09-19T03:27:44;23.80;99.90
14008;DHT22;61651;45.508;12.232;2023-09-19T03:30:46;23.80;99.90
14008;DHT22;61651;45.508;12.232;2023-09-19T03:33:49;23.80;99.90
14008;DHT22;61651;45.508;12.232;2023-09-19T03:36:51;23.70;99.90
14008;DHT22;61651;45.508;12.232;2023-09-19T03:39:53;23.60;99.90
14008;DHT22;61651;45.508;12.232;2023-09-19T03:42:55;23.60;99.90
14008;DHT22;61651;45.508;12.232;2023-09-19T03:46:01;23.60;99.90
14008;DHT22;61651;45.508;12.232;2023-09-19T03:49:06;23.60;99.90
14008;DHT22;61651;45.508;12.232;2023-09-19T03:52:09;23.60;99.90
14008;DHT22;61651;45.508;12.232;2023-09-19T03:55:11;23.60;99.90
14008;DHT22;61651;45.508;12.232;2023-09-19T03:58:13;23.60;99.90
14008;DHT22;61651;45.508;12.232;2023-09-19T04:01:15;23.60;99.90
14008;DHT22;61651;45.508;12.232;2023-09-19T04:04:18;23.50;99.90
14008;DHT22;61651;45.508;12.232;2023-09-19T04:07:20;23.50;99.90
14008;DHT22;61651;45.508;12.232;2023-09-19T04:10:23;23.40;99.90
14008;DHT22;61651;45.508;12.232;2023-09-19T04:13:26;23.40;99.90
14008;DHT22;61651;45.508;12.232;2023-09-19T04:16:28;23.30;99.90
14008;DHT22;61651;45.508;12.232;2023-09-19T04:19:32;23.30;99.90
14008;DHT22;61651;45.508;12.232;2023-09-19T04:22:34;23.30;99.90
14008;DHT22;61651;45.508;12.232;2023-09-19T04:25:36;23.30;99.90
14008;DHT22;61651;45.508;12.232;2023-09-19T04:28:38;23.30;99.90
14008;DHT22;61651;45.508;12.232;2023-09-19T04:31:41;23.30;99.90
14008;DHT22;61651;45.508;12.232;2023-09-19T04:34:48;23.30;99.90
14008;DHT22;61651;45.508;12.232;2023-09-19T04:37:51;23.30;99.90
14008;DHT22;61651;45.508;12.232;2023-09-19T04:40:57;23.20;99.90
14008;DHT22;61651;45.508;12.232;2023-09-19T04:43:59;23.20;99.90
14008;DHT22;61651;45.508;12.232;2023-09-19T04:47:01;23.20;99.90
14008;DHT22;61651;45.508;12.232;2023-09-19T04:50:06;23.20;99.90
14008;DHT22;61651;45.508;12.232;2023-09-19T04:53:12;23.20;99.90
14008;DHT22;61651;45.508;12.232;2023-09-19T04:56:14;23.10;99.90
14008;DHT22;61651;45.508;12.232;2023-09-19T04:59:16;23.00;99.90
14008;DHT22;61651;45.508;12.232;2023-09-19T05:02:18;23.00;99.90
14008;DHT22;61651;45.508;12.232;2023-09-19T05:05:21;23.00;99.90
14008;DHT22;61651;45.508;12.232;2023-09-19T05:08:24;23.00;99.90
14008;DHT22;61651;45.508;12.232;2023-09-19T05:11:26;23.00;99.90
14008;DHT22;61651;45.508;12.232;2023-09-19T05:14:30;23.00;99.90
14008;DHT22;61651;45.508;12.232;2023-09-19T05:17:32;23.00;99.90
14008;DHT22;61651;45.508;12.232;2023-09-19T05:20:36;23.00;99.90
14008;DHT22;61651;45.508;12.232;2023-09-19T05:23:39;23.00;99.90
14008;DHT22;61651;45.508;12.232;2023-09-19T05:26:41;23.00;99.90
14008;DHT22;61651;45.508;12.232;2023-09-19T05:29:43;23.00;99.90
14008;DHT22;61651;45.508;12.232;2023-09-19T05:32:46;23.00;99.90
14008;DHT22;61651;45.508;12.232;2023-09-19T05:35:49;23.00;99.90
14008;DHT22;61651;45.508;12.232;2023-09-19T05:38:51;23.00;99.90
14008;DHT22;61651;45.508;12.232;2023-09-19T05:41:53;22.90;99.90
14008;DHT22;61651;45.508;12.232;2023-09-19T05:44:55;23.00;99.90
14008;DHT22;61651;45.508;12.232;2023-09-19T05:48:07;23.10;99.90
14008;DHT22;61651;45.508;12.232;2023-09-19T05:51:11;23.10;99.90
14008;DHT22;61651;45.508;12.232;2023-09-19T05:54:13;23.20;99.90
14008;DHT22;61651;45.508;12.232;2023-09-19T05:57:16;23.10;99.90
14008;DHT22;61651;45.508;12.232;2023-09-19T06:00:18;23.20;99.90
14008;DHT22;61651;45.508;12.232;2023-09-19T06:03:22;23.20;99.90
14008;DHT22;61651;45.508;12.232;2023-09-19T06:06:26;23.30;99.90
14008;DHT22;61651;45.508;12.232;2023-09-19T06:09:28;23.40;99.90
14008;DHT22;61651;45.508;12.232;2023-09-19T06:12:32;23.40;99.90
14008;DHT22;61651;45.508;12.232;2023-09-19T06:15:37;23.50;99.90
14008;DHT22;61651;45.508;12.232;2023-09-19T06:18:41;23.60;99.90
14008;DHT22;61651;45.508;12.232;2023-09-19T06:21:44;23.70;99.90
14008;DHT22;61651;45.508;12.232;2023-09-19T06:24:47;23.70;99.90
14008;DHT22;61651;45.508;12.232;2023-09-19T06:27:49;23.60;99.90
14008;DHT22;61651;45.508;12.232;2023-09-19T06:30:52;23.70;99.90
14008;DHT22;61651;45.508;12.232;2023-09-19T06:33:54;23.60;99.90
14008;DHT22;61651;45.508;12.232;2023-09-19T06:36:58;23.70;99.90
14008;DHT22;61651;45.508;12.232;2023-09-19T06:40:00;23.70;99.90
14008;DHT22;61651;45.508;12.232;2023-09-19T06:43:05;23.80;99.90
14008;DHT22;61651;45.508;12.232;2023-09-19T06:46:07;23.90;99.90
14008;DHT22;61651;45.508;12.232;2023-09-19T06:49:11;23.70;99.90
14008;DHT22;61651;45.508;12.232;2023-09-19T06:52:15;23.80;99.90
14008;DHT22;61651;45.508;12.232;2023-09-19T06:55:18;23.90;99.90
14008;DHT22;61651;45.508;12.232;2023-09-19T06:58:20;24.00;99.90
14008;DHT22;61651;45.508;12.232;2023-09-19T07:01:22;24.10;99.90
14008;DHT22;61651;45.508;12.232;2023-09-19T07:04:26;24.20;99.90
14008;DHT22;61651;45.508;12.232;2023-09-19T07:07:30;24.20;99.90
14008;DHT22;61651;45.508;12.232;2023-09-19T07:10:35;24.20;99.90
14008;DHT22;61651;45.508;12.232;2023-09-19T07:13:37;24.30;99.90
14008;DHT22;61651;45.508;12.232;2023-09-19T07:16:42;24.30;99.90
14008;DHT22;61651;45.508;12.232;2023-09-19T07:19:46;24.30;99.90
14008;DHT22;61651;45.508;12.232;2023-09-19T07:22:50;24.30;99.90
14008;DHT22;61651;45.508;12.232;2023-09-19T07:25:56;24.40;99.90
14008;DHT22;61651;45.508;12.232;2023-09-19T07:28:59;24.50;99.90
14008;DHT22;61651;45.508;12.232;2023-09-19T07:32:03;24.60;99.90
14008;DHT22;61651;45.508;12.232;2023-09-19T07:35:07;24.80;99.90
14008;DHT22;61651;45.508;12.232;2023-09-19T07:38:11;24.90;99.90
14008;DHT22;61651;45.508;12.232;2023-09-19T07:41:13;25.00;99.90
14008;DHT22;61651;45.508;12.232;2023-09-19T07:44:15;25.00;99.90
14008;DHT22;61651;45.508;12.232;2023-09-19T07:47:17;25.00;99.90
14008;DHT22;61651;45.508;12.232;2023-09-19T07:50:20;25.10;99.90
14008;DHT22;61651;45.508;12.232;2023-09-19T07:53:23;25.30;99.90
14008;DHT22;61651;45.508;12.232;2023-09-19T07:56:25;25.30;99.90
14008;DHT22;61651;45.508;12.232;2023-09-19T07:59:28;25.30;99.90
14008;DHT22;61651;45.508;12.232;2023-09-19T08:02:34;25.40;99.90
14008;DHT22;61651;45.508;12.232;2023-09-19T08:05:39;25.40;99.90
14008;DHT22;61651;45.508;12.232;2023-09-19T08:08:47;25.50;99.90
14008;DHT22;61651;45.508;12.232;2023-09-19T08:11:51;25.60;99.90
14008;DHT22;61651;45.508;12.232;2023-09-19T08:14:53;25.70;99.90
14008;DHT22;61651;45.508;12.232;2023-09-19T08:17:56;25.80;99.90
14008;DHT22;61651;45.508;12.232;2023-09-19T08:20:59;25.90;99.90
14008;DHT22;61651;45.508;12.232;2023-09-19T08:24:03;26.00;99.90
14008;DHT22;61651;45.508;12.232;2023-09-19T08:27:06;26.10;99.90
14008;DHT22;61651;45.508;12.232;2023-09-19T08:30:11;26.10;99.90
14008;DHT22;61651;45.508;12.232;2023-09-19T08:33:13;26.20;99.90
14008;DHT22;61651;45.508;12.232;2023-09-19T08:36:17;26.30;99.90
14008;DHT22;61651;45.508;12.232;2023-09-19T08:39:21;26.40;99.90
14008;DHT22;61651;45.508;12.232;2023-09-19T08:42:23;26.30;99.90
14008;DHT22;61651;45.508;12.232;2023-09-19T08:45:26;26.20;99.90
14008;DHT22;61651;45.508;12.232;2023-09-19T08:48:29;26.30;99.90
14008;DHT22;61651;45.508;12.232;2023-09-19T08:51:41;26.40;99.90
14008;DHT22;61651;45.508;12.232;2023-09-19T08:54:47;26.10;99.90
14008;DHT22;61651;45.508;12.232;2023-09-19T08:57:51;26.10;99.90
14008;DHT22;61651;45.508;12.232;2023-09-19T09:00:57;26.10;99.90
14008;DHT22;61651;45.508;12.232;2023-09-19T09:04:03;25.90;99.90
14008;DHT22;61651;45.508;12.232;2023-09-19T09:07:09;26.00;99.90
14008;DHT22;61651;45.508;12.232;2023-09-19T09:10:16;26.20;99.90
14008;DHT22;61651;45.508;12.232;2023-09-19T09:13:18;26.40;99.90
14008;DHT22;61651;45.508;12.232;2023-09-19T09:16:22;26.60;99.90
14008;DHT22;61651;45.508;12.232;2023-09-19T09:19:26;26.80;99.90
14008;DHT22;61651;45.508;12.232;2023-09-19T09:22:28;26.80;99.90
14008;DHT22;61651;45.508;12.232;2023-09-19T09:25:48;27.00;99.90
14008;DHT22;61651;45.508;12.232;2023-09-19T09:28:51;27.10;99.90
14008;DHT22;61651;45.508;12.232;2023-09-19T09:31:54;27.20;99.90
14008;DHT22;61651;45.508;12.232;2023-09-19T09:34:57;27.20;99.90
14008;DHT22;61651;45.508;12.232;2023-09-19T09:38:00;27.30;99.90
14008;DHT22;61651;45.508;12.232;2023-09-19T09:41:08;27.50;99.90
14008;DHT22;61651;45.508;12.232;2023-09-19T09:44:17;27.70;99.90
14008;DHT22;61651;45.508;12.232;2023-09-19T09:47:41;27.90;99.90
14008;DHT22;61651;45.508;12.232;2023-09-19T09:50:50;28.00;99.90
14008;DHT22;61651;45.508;12.232;2023-09-19T09:54:10;28.00;99.90
14008;DHT22;61651;45.508;12.232;2023-09-19T09:57:14;28.10;99.90
14008;DHT22;61651;45.508;12.232;2023-09-19T10:00:18;28.00;99.90
14008;DHT22;61651;45.508;12.232;2023-09-19T10:03:21;27.90;99.90
14008;DHT22;61651;45.508;12.232;2023-09-19T10:06:23;27.90;99.90
14008;DHT22;61651;45.508;12.232;2023-09-19T10:09:28;28.00;99.90
14008;DHT22;61651;45.508;12.232;2023-09-19T10:12:43;27.90;99.90
14008;DHT22;61651;45.508;12.232;2023-09-19T10:15:48;27.90;99.90
14008;DHT22;61651;45.508;12.232;2023-09-19T10:18:53;28.00;99.90
14008;DHT22;61651;45.508;12.232;2023-09-19T10:21:59;28.10;99.90
14008;DHT22;61651;45.508;12.232;2023-09-19T10:25:04;28.20;99.90
14008;DHT22;61651;45.508;12.232;2023-09-19T10:28:11;28.20;99.90
14008;DHT22;61651;45.508;12.232;2023-09-19T10:31:18;28.30;99.90
14008;DHT22;61651;45.508;12.232;2023-09-19T10:34:22;28.30;99.90
14008;DHT22;61651;45.508;12.232;2023-09-19T10:37:27;28.50;99.90
14008;DHT22;61651;45.508;12.232;2023-09-19T10:40:33;28.70;99.90
14008;DHT22;61651;45.508;12.232;2023-09-19T10:43:38;28.90;99.90
14008;DHT22;61651;45.508;12.232;2023-09-19T10:46:45;29.30;99.90
14008;DHT22;61651;45.508;12.232;2023-09-19T10:49:48;29.60;99.90
14008;DHT22;61651;45.508;12.232;2023-09-19T10:52:51;29.70;99.90
14008;DHT22;61651;45.508;12.232;2023-09-19T10:56:02;29.80;99.90
14008;DHT22;61651;45.508;12.232;2023-09-19T10:59:14;30.00;99.90
14008;DHT22;61651;45.508;12.232;2023-09-19T11:02:18;30.20;99.90
14008;DHT22;61651;45.508;12.232;2023-09-19T11:05:20;30.20;99.90
14008;DHT22;61651;45.508;12.232;2023-09-19T11:08:23;30.50;99.90
14008;DHT22;61651;45.508;12.232;2023-09-19T11:11:42;30.70;99.90
14008;DHT22;61651;45.508;12.232;2023-09-19T11:14:47;30.90;99.90
14008;DHT22;61651;45.508;12.232;2023-09-19T11:17:49;31.10;99.90
14008;DHT22;61651;45.508;12.232;2023-09-19T11:24:34;31.20;99.90
14008;DHT22;61651;45.508;12.232;2023-09-19T11:31:43;31.30;99.90
14008;DHT22;61651;45.508;12.232;2023-09-19T11:34:48;31.10;99.90
14008;DHT22;61651;45.508;12.232;2023-09-19T11:38:01;31.00;99.90
14008;DHT22;61651;45.508;12.232;2023-09-19T11:41:38;31.20;99.90
14008;DHT22;61651;45.508;12.232;2023-09-19T11:44:40;31.10;99.90
14008;DHT22;61651;45.508;12.232;2023-09-19T11:47:45;30.90;99.90
14008;DHT22;61651;45.508;12.232;2023-09-19T11:50:49;30.90;99.90
14008;DHT22;61651;45.508;12.232;2023-09-19T11:53:52;30.80;99.90
14008;DHT22;61651;45.508;12.232;2023-09-19T11:56:55;30.90;99.90
14008;DHT22;61651;45.508;12.232;2023-09-19T11:59:57;31.10;99.90
14008;DHT22;61651;45.508;12.232;2023-09-19T12:03:07;31.20;99.90
14008;DHT22;61651;45.508;12.232;2023-09-19T12:06:12;31.10;99.90
14008;DHT22;61651;45.508;12.232;2023-09-19T12:09:16;31.30;99.90
14008;DHT22;61651;45.508;12.232;2023-09-19T12:12:22;31.40;99.90
14008;DHT22;61651;45.508;12.232;2023-09-19T12:15:28;31.40;99.90
14008;DHT22;61651;45.508;12.232;2023-09-19T12:18:37;31.50;99.90
14008;DHT22;61651;45.508;12.232;2023-09-19T12:21:39;31.60;99.90
14008;DHT22;61651;45.508;12.232;2023-09-19T12:24:41;31.70;99.90
14008;DHT22;61651;45.508;12.232;2023-09-19T12:27:47;31.80;99.90
14008;DHT22;61651;45.508;12.232;2023-09-19T12:30:50;31.40;98.20
14008;DHT22;61651;45.508;12.232;2023-09-19T12:33:57;31.60;99.20
14008;DHT22;61651;45.508;12.232;2023-09-19T12:37:09;31.90;98.70
14008;DHT22;61651;45.508;12.232;2023-09-19T12:40:16;32.10;97.20
14008;DHT22;61651;45.508;12.232;2023-09-19T12:43:19;32.20;96.50
14008;DHT22;61651;45.508;12.232;2023-09-19T12:46:21;32.40;96.10
14008;DHT22;61651;45.508;12.232;2023-09-19T12:49:27;32.70;96.60
14008;DHT22;61651;45.508;12.232;2023-09-19T12:52:35;33.10;96.40
14008;DHT22;61651;45.508;12.232;2023-09-19T12:55:38;33.10;95.00
14008;DHT22;61651;45.508;12.232;2023-09-19T12:58:50;32.50;95.10
14008;DHT22;61651;45.508;12.232;2023-09-19T13:02:03;31.60;95.60
14008;DHT22;61651;45.508;12.232;2023-09-19T13:05:08;31.60;96.50
14008;DHT22;61651;45.508;12.232;2023-09-19T13:08:18;31.90;96.10
14008;DHT22;61651;45.508;12.232;2023-09-19T13:11:21;32.20;95.30
14008;DHT22;61651;45.508;12.232;2023-09-19T13:14:24;31.90;95.30
14008;DHT22;61651;45.508;12.232;2023-09-19T13:17:43;32.20;95.10
14008;DHT22;61651;45.508;12.232;2023-09-19T13:21:05;32.70;95.20
14008;DHT22;61651;45.508;12.232;2023-09-19T13:24:21;33.40;94.10
14008;DHT22;61651;45.508;12.232;2023-09-19T13:27:28;33.90;95.00
14008;DHT22;61651;45.508;12.232;2023-09-19T13:30:30;34.40;95.00
14008;DHT22;61651;45.508;12.232;2023-09-19T13:33:33;34.40;92.60
14008;DHT22;61651;45.508;12.232;2023-09-19T13:36:37;35.00;93.60
14008;DHT22;61651;45.508;12.232;2023-09-19T13:39:40;35.60;92.90
14008;DHT22;61651;45.508;12.232;2023-09-19T13:42:47;36.00;93.50
14008;DHT22;61651;45.508;12.232;2023-09-19T13:45:54;36.30;93.30
14008;DHT22;61651;45.508;12.232;2023-09-19T13:48:58;36.50;91.80
14008;DHT22;61651;45.508;12.232;2023-09-19T13:52:01;36.70;92.50
14008;DHT22;61651;45.508;12.232;2023-09-19T13:55:06;36.90;92.90
14008;DHT22;61651;45.508;12.232;2023-09-19T13:58:08;37.10;91.50
14008;DHT22;61651;45.508;12.232;2023-09-19T14:01:12;37.20;92.50
14008;DHT22;61651;45.508;12.232;2023-09-19T14:04:14;37.00;91.70
14008;DHT22;61651;45.508;12.232;2023-09-19T14:07:17;37.00;91.60
14008;DHT22;61651;45.508;12.232;2023-09-19T14:10:20;37.20;91.10
14008;DHT22;61651;45.508;12.232;2023-09-19T14:13:22;37.30;92.10
14008;DHT22;61651;45.508;12.232;2023-09-19T14:16:26;37.50;91.60
14008;DHT22;61651;45.508;12.232;2023-09-19T14:19:30;37.60;91.20
14008;DHT22;61651;45.508;12.232;2023-09-19T14:22:34;37.80;91.50
14008;DHT22;61651;45.508;12.232;2023-09-19T14:25:37;37.90;90.30
14008;DHT22;61651;45.508;12.232;2023-09-19T14:28:39;38.10;91.10
14008;DHT22;61651;45.508;12.232;2023-09-19T14:31:42;37.90;90.80
14008;DHT22;61651;45.508;12.232;2023-09-19T14:34:44;37.20;91.00
14008;DHT22;61651;45.508;12.232;2023-09-19T14:37:48;36.70;91.30
14008;DHT22;61651;45.508;12.232;2023-09-19T14:40:59;36.10;89.00
14008;DHT22;61651;45.508;12.232;2023-09-19T14:44:02;35.40;90.00
14008;DHT22;61651;45.508;12.232;2023-09-19T14:47:05;34.70;88.40
14008;DHT22;61651;45.508;12.232;2023-09-19T14:50:08;33.90;90.50
14008;DHT22;61651;45.508;12.232;2023-09-19T14:53:12;33.60;91.00
14008;DHT22;61651;45.508;12.232;2023-09-19T14:56:14;33.50;90.80
14008;DHT22;61651;45.508;12.232;2023-09-19T14:59:19;33.60;90.70
14008;DHT22;61651;45.508;12.232;2023-09-19T15:02:21;33.10;90.70
14008;DHT22;61651;45.508;12.232;2023-09-19T15:05:23;33.30;90.70
14008;DHT22;61651;45.508;12.232;2023-09-19T15:08:26;34.00;90.80
14008;DHT22;61651;45.508;12.232;2023-09-19T15:11:28;34.20;90.50
14008;DHT22;61651;45.508;12.232;2023-09-19T15:14:30;34.50;90.00
14008;DHT22;61651;45.508;12.232;2023-09-19T15:17:32;34.30;90.80
14008;DHT22;61651;45.508;12.232;2023-09-19T15:20:34;33.60;90.30
14008;DHT22;61651;45.508;12.232;2023-09-19T15:23:39;33.60;90.70
14008;DHT22;61651;45.508;12.232;2023-09-19T15:26:41;33.50;93.00
14008;DHT22;61651;45.508;12.232;2023-09-19T15:29:44;33.30;95.30
14008;DHT22;61651;45.508;12.232;2023-09-19T15:32:46;32.80;96.30
14008;DHT22;61651;45.508;12.232;2023-09-19T15:35:49;32.40;96.30
14008;DHT22;61651;45.508;12.232;2023-09-19T15:38:58;32.00;96.60
14008;DHT22;61651;45.508;12.232;2023-09-19T15:42:01;31.90;94.50
14008;DHT22;61651;45.508;12.232;2023-09-19T15:45:03;31.80;94.50
14008;DHT22;61651;45.508;12.232;2023-09-19T15:48:06;31.60;95.80
14008;DHT22;61651;45.508;12.232;2023-09-19T15:51:08;31.50;95.70
14008;DHT22;61651;45.508;12.232;2023-09-19T15:54:14;31.20;95.50
14008;DHT22;61651;45.508;12.232;2023-09-19T15:57:16;30.80;95.50
14008;DHT22;61651;45.508;12.232;2023-09-19T16:00:18;30.40;95.40
14008;DHT22;61651;45.508;12.232;2023-09-19T16:03:20;30.10;95.60
14008;DHT22;61651;45.508;12.232;2023-09-19T16:06:24;29.80;96.00
14008;DHT22;61651;45.508;12.232;2023-09-19T16:09:27;29.60;96.00
14008;DHT22;61651;45.508;12.232;2023-09-19T16:12:30;29.40;95.60
14008;DHT22;61651;45.508;12.232;2023-09-19T16:15:32;29.20;95.20
14008;DHT22;61651;45.508;12.232;2023-09-19T16:18:34;29.10;95.20
14008;DHT22;61651;45.508;12.232;2023-09-19T16:21:37;29.00;95.10
14008;DHT22;61651;45.508;12.232;2023-09-19T16:24:42;29.00;94.80
14008;DHT22;61651;45.508;12.232;2023-09-19T16:27:45;28.90;94.70
14008;DHT22;61651;45.508;12.232;2023-09-19T16:30:47;28.90;94.70
14008;DHT22;61651;45.508;12.232;2023-09-19T16:33:49;28.90;94.80
14008;DHT22;61651;45.508;12.232;2023-09-19T16:36:51;28.80;94.90
14008;DHT22;61651;45.508;12.232;2023-09-19T16:39:54;28.70;95.00
14008;DHT22;61651;45.508;12.232;2023-09-19T16:42:56;28.70;95.10
14008;DHT22;61651;45.508;12.232;2023-09-19T16:46:00;28.60;95.30
14008;DHT22;61651;45.508;12.232;2023-09-19T16:49:02;28.50;95.50
14008;DHT22;61651;45.508;12.232;2023-09-19T16:52:05;28.40;95.70
14008;DHT22;61651;45.508;12.232;2023-09-19T16:55:09;28.30;95.80
14008;DHT22;61651;45.508;12.232;2023-09-19T16:58:11;28.30;95.80
14008;DHT22;61651;45.508;12.232;2023-09-19T17:01:14;28.20;95.90
14008;DHT22;61651;45.508;12.232;2023-09-19T17:04:16;28.10;96.10
14008;DHT22;61651;45.508;12.232;2023-09-19T17:07:18;28.00;96.10
14008;DHT22;61651;45.508;12.232;2023-09-19T17:10:22;27.90;96.30
14008;DHT22;61651;45.508;12.232;2023-09-19T17:13:24;27.80;96.60
14008;DHT22;61651;45.508;12.232;2023-09-19T17:16:27;27.70;96.90
14008;DHT22;61651;45.508;12.232;2023-09-19T17:19:30;27.60;97.10
14008;DHT22;61651;45.508;12.232;2023-09-19T17:22:32;27.50;97.30
14008;DHT22;61651;45.508;12.232;2023-09-19T17:25:35;27.40;97.60
14008;DHT22;61651;45.508;12.232;2023-09-19T17:28:38;27.30;97.90
14008;DHT22;61651;45.508;12.232;2023-09-19T17:31:40;27.20;98.30
14008;DHT22;61651;45.508;12.232;2023-09-19T17:34:42;27.10;98.50
14008;DHT22;61651;45.508;12.232;2023-09-19T17:37:44;27.00;99.10
14008;DHT22;61651;45.508;12.232;2023-09-19T17:40:48;27.00;99.10
14008;DHT22;61651;45.508;12.232;2023-09-19T17:43:54;26.90;99.40
14008;DHT22;61651;45.508;12.232;2023-09-19T17:46:56;26.80;99.60
14008;DHT22;61651;45.508;12.232;2023-09-19T17:49:58;26.70;99.70
14008;DHT22;61651;45.508;12.232;2023-09-19T17:53:01;26.60;99.90
14008;DHT22;61651;45.508;12.232;2023-09-19T17:56:05;26.60;99.90
14008;DHT22;61651;45.508;12.232;2023-09-19T17:59:09;26.60;99.90
14008;DHT22;61651;45.508;12.232;2023-09-19T18:02:12;26.50;99.90
14008;DHT22;61651;45.508;12.232;2023-09-19T18:05:14;26.40;99.90
14008;DHT22;61651;45.508;12.232;2023-09-19T18:08:17;26.30;99.90
14008;DHT22;61651;45.508;12.232;2023-09-19T18:11:23;26.30;99.90
14008;DHT22;61651;45.508;12.232;2023-09-19T18:14:26;26.20;99.90
14008;DHT22;61651;45.508;12.232;2023-09-19T18:17:32;26.20;99.90
14008;DHT22;61651;45.508;12.232;2023-09-19T18:20:37;26.10;99.90
14008;DHT22;61651;45.508;12.232;2023-09-19T18:23:40;26.10;99.90
14008;DHT22;61651;45.508;12.232;2023-09-19T18:26:44;26.10;99.90
14008;DHT22;61651;45.508;12.232;2023-09-19T18:29:46;26.10;99.90
14008;DHT22;61651;45.508;12.232;2023-09-19T18:32:49;26.00;99.90
14008;DHT22;61651;45.508;12.232;2023-09-19T18:35:51;26.00;99.90
14008;DHT22;61651;45.508;12.232;2023-09-19T18:38:54;25.90;99.90
14008;DHT22;61651;45.508;12.232;2023-09-19T18:41:58;25.90;99.90
14008;DHT22;61651;45.508;12.232;2023-09-19T18:45:00;25.90;99.90
14008;DHT22;61651;45.508;12.232;2023-09-19T18:48:02;25.80;99.90
14008;DHT22;61651;45.508;12.232;2023-09-19T18:51:05;25.80;99.90
14008;DHT22;61651;45.508;12.232;2023-09-19T18:54:08;25.80;99.90
14008;DHT22;61651;45.508;12.232;2023-09-19T18:57:13;25.70;99.90
14008;DHT22;61651;45.508;12.232;2023-09-19T19:00:15;25.70;99.90
14008;DHT22;61651;45.508;12.232;2023-09-19T19:03:18;25.60;99.90
14008;DHT22;61651;45.508;12.232;2023-09-19T19:06:20;25.60;99.90
14008;DHT22;61651;45.508;12.232;2023-09-19T19:09:23;25.60;99.90
14008;DHT22;61651;45.508;12.232;2023-09-19T19:12:26;25.60;99.90